This is the latest recevied weather packets stored in our database for station/object OE-11138. If no packets are shown the sender has not sent any weather packets the latest 10 day(s).
| Time | Temp. | Humidity | Pressure | Rain* | Wind** | Luminosity | Snow |
|---|---|---|---|---|---|---|---|
| 1787793097 | 11.11° C | 88% | 717.1 hPa | 0 mm | - | 0 W/m² | - |
| 1787792724 | 11.67° C | 84% | 717.1 hPa | 0 mm | - | 0 W/m² | - |
| 1787792124 | 11.67° C | 73% | 717.3 hPa | 0 mm | - | 0 W/m² | - |
| 1787791297 | 12.22° C | 68% | 717.2 hPa | 0 mm | - | 0 W/m² | - |
| 1787790924 | 11.67° C | 74% | 717.2 hPa | 0 mm | - | 0 W/m² | - |
| 1787790324 | 11.11° C | 88% | 717.2 hPa | 0 mm | - | 0 W/m² | - |
| 1787789496 | 11.11° C | 88% | 717.1 hPa | 0 mm | - | 0 W/m² | - |
| 1787789124 | 11.67° C | 82% | 717.2 hPa | 0 mm | - | 0 W/m² | - |
| 1787788524 | 11.11° C | 88% | 717 hPa | 0 mm | - | 0 W/m² | - |
| 1787787697 | 11.11° C | 90% | 717 hPa | 0 mm | - | 0 W/m² | - |
| 1787787324 | 11.67° C | 81% | 717.3 hPa | 0 mm | - | 0 W/m² | - |
| 1787786724 | 11.67° C | 84% | 717.4 hPa | 0 mm | - | 0 W/m² | - |
| 1787786123 | 11.11° C | 90% | 717 hPa | 0 mm | - | 0 W/m² | - |
| 1787785524 | 11.67° C | 86% | 717.2 hPa | 0 mm | - | 0 W/m² | - |
| 1787784924 | 11.67° C | 81% | 717.3 hPa | 0 mm | - | 0 W/m² | - |
| 1787784097 | 11.67° C | 82% | 717.4 hPa | 0 mm | - | 0 W/m² | - |
| 1787783724 | 11.67° C | 82% | 717.1 hPa | 0 mm | - | 0 W/m² | - |
| 1787783123 | 12.22° C | 78% | 717.4 hPa | 0 mm | - | 0 W/m² | - |
| 1787782298 | 11.67° C | 83% | 717.2 hPa | 0 mm | - | 0 W/m² | - |
| 1787781924 | 11.67° C | 82% | 717.3 hPa | 0 mm | - | 0 W/m² | - |
| 1787781323 | 12.22° C | 83% | 717.4 hPa | 0 mm | - | 0 W/m² | - |
| 1787780498 | 12.22° C | 82% | 717.5 hPa | 0 mm | - | 0 W/m² | - |
| 1787780124 | 11.67° C | 84% | 717.4 hPa | 0 mm | - | 0 W/m² | - |
| 1787779523 | 11.67° C | 86% | 717.3 hPa | 0 mm | - | 0 W/m² | - |
| 1787778697 | 11.67° C | 85% | 717.3 hPa | 0 mm | - | 0 W/m² | - |
* Rain latest hour (hover to see other rain measurements)
** Current wind speed in m/s (hover to see current wind gust speed)